Time;durP1;ratioP1;P1;durP2;ratioP2;P2;SDS_P1;SDS_P2;PMS_P1;PMS_P2;Temp;Humidity;BMP_temperature;BMP_pressure;BME280_temperature;BME280_humidity;BME280_pressure;Samples;Min_cycle;Max_cycle;Signal;HPM_P1;HPM_P2
2022/06/24 00:01:05;;;;;;;;;;;;;;;18.11;99.47;100464.41;6151686;23;19909;-76
2022/06/24 00:03:31;;;;;;;;;;;;;;;18.14;99.67;100490.75;6124372;23;19923;-76
2022/06/24 00:05:56;;;;;;;;;;;;;;;18.14;99.82;100528.72;6149688;23;19989;-80
2022/06/24 00:08:22;;;;;;;;;;;;;;;18.16;99.74;100515.41;6125803;23;20250;-76
2022/06/24 00:10:47;;;;;;;;;;;;;;;18.18;99.65;100524.16;6126229;23;20278;-78
2022/06/24 00:13:12;;;;;;;;;;;;;;;18.23;99.83;100553.09;6122380;23;20328;-80
2022/06/24 00:15:38;;;;;;;;;;;;;;;18.31;100.00;100591.56;6123713;23;20243;-82
2022/06/24 00:18:14;;;;;;;;;;;;;;;18.37;100.00;100632.84;6122523;23;19916;-82
2022/06/24 00:20:43;;;;;;;;;;;;;;;18.43;100.00;100631.72;6127212;23;19912;-79
2022/06/24 00:23:08;;;;;;;;;;;;;;;18.48;100.00;100629.69;6127404;23;19915;-83
2022/06/24 00:25:36;;;;;;;;;;;;;;;18.54;99.89;100637.34;6148113;23;19989;-79
2022/06/24 00:28:07;;;;;;;;;;;;;;;18.59;100.00;100674.28;6125445;23;19912;-82
2022/06/24 00:31:04;;;;;;;;;;;;;;;18.63;100.00;100705.94;6124566;23;19913;-77
2022/06/24 00:33:34;;;;;;;;;;;;;;;18.61;100.00;100731.66;6060315;23;19908;-77
2022/06/24 00:35:59;;;;;;;;;;;;;;;18.53;100.00;100753.25;6125366;23;19908;-77
2022/06/24 00:38:28;;;;;;;;;;;;;;;18.44;100.00;100766.94;6126627;23;20228;-74
2022/06/24 00:41:05;;;;;;;;;;;;;;;18.41;100.00;100745.00;6123019;23;19915;-72
2022/06/24 00:43:31;;;;;;;;;;;;;;;18.40;100.00;100736.16;6124250;23;19959;-75
2022/06/24 00:46:16;;;;;;;;;;;;;;;18.42;100.00;100728.13;6122936;23;19913;-71
2022/06/24 00:48:46;;;;;;;;;;;;;;;18.42;100.00;100720.19;6125258;23;20328;-72
2022/06/24 00:51:12;;;;;;;;;;;;;;;18.43;100.00;100713.94;6125003;23;19979;-74
2022/06/24 00:53:42;;;;;;;;;;;;;;;18.46;100.00;100708.50;6100602;23;19951;-74
2022/06/24 00:56:09;;;;;;;;;;;;;;;18.48;100.00;100680.13;6125228;23;19908;-73
2022/06/24 00:58:34;;;;;;;;;;;;;;;18.48;100.00;100683.63;6122474;23;19913;-73
2022/06/24 01:01:00;;;;;;;;;;;;;;;18.49;100.00;100692.47;6149552;23;19913;-73
2022/06/24 01:03:36;;;;;;;;;;;;;;;18.47;100.00;100691.66;6124703;23;19908;-74
2022/06/24 01:06:01;;;;;;;;;;;;;;;18.43;99.88;100682.13;6125551;23;19944;-75
2022/06/24 01:08:27;;;;;;;;;;;;;;;18.36;99.81;100689.53;6125010;23;20023;-77
2022/06/24 01:10:52;;;;;;;;;;;;;;;18.32;99.82;100690.59;6148262;23;19921;-75
2022/06/24 01:13:18;;;;;;;;;;;;;;;18.29;100.00;100675.66;6123528;23;19920;-76
2022/06/24 01:15:43;;;;;;;;;;;;;;;18.23;99.98;100672.44;6125983;23;19909;-75
2022/06/24 01:18:09;;;;;;;;;;;;;;;18.11;99.68;100673.88;6125996;23;20047;-78
2022/06/24 01:20:34;;;;;;;;;;;;;;;17.95;99.14;100679.88;6126009;23;20012;-77
2022/06/24 01:22:59;;;;;;;;;;;;;;;17.76;99.24;100671.00;6149179;23;19909;-75
2022/06/24 01:25:25;;;;;;;;;;;;;;;17.61;98.97;100672.50;6125630;23;19919;-75
2022/06/24 01:27:50;;;;;;;;;;;;;;;17.46;99.14;100669.59;6150315;23;19991;-75
2022/06/24 01:30:15;;;;;;;;;;;;;;;17.33;98.97;100660.47;6125368;23;19948;-75
2022/06/24 01:32:41;;;;;;;;;;;;;;;17.19;98.85;100655.75;6147111;23;19991;-77
2022/06/24 01:35:06;;;;;;;;;;;;;;;17.09;99.19;100638.53;6125627;23;19908;-75
2022/06/24 01:37:31;;;;;;;;;;;;;;;17.01;99.28;100651.22;6103902;23;19995;-75
2022/06/24 01:39:57;;;;;;;;;;;;;;;16.92;99.24;100637.47;6128285;23;19928;-75
2022/06/24 01:42:22;;;;;;;;;;;;;;;16.85;99.36;100628.03;6125904;23;20323;-75
2022/06/24 01:44:47;;;;;;;;;;;;;;;16.81;99.50;100629.09;6126853;23;20335;-74
2022/06/24 01:47:13;;;;;;;;;;;;;;;16.75;99.39;100613.44;6152704;23;19951;-74
2022/06/24 01:49:38;;;;;;;;;;;;;;;16.71;99.51;100622.47;6152497;23;19917;-76
2022/06/24 01:52:03;;;;;;;;;;;;;;;16.67;99.52;100631.44;6152323;23;20339;-75
2022/06/24 01:54:29;;;;;;;;;;;;;;;16.66;99.67;100632.34;6126961;23;20209;-76
2022/06/24 01:56:54;;;;;;;;;;;;;;;16.64;99.75;100627.13;6127978;23;19929;-75
2022/06/24 01:59:20;;;;;;;;;;;;;;;16.61;99.90;100627.25;6151481;23;19909;-75
2022/06/24 02:01:45;;;;;;;;;;;;;;;16.59;99.87;100635.25;6128225;23;19909;-77
2022/06/24 02:04:11;;;;;;;;;;;;;;;16.59;99.93;100632.59;6102248;23;19922;-76
2022/06/24 02:06:36;;;;;;;;;;;;;;;16.60;100.00;100625.53;6153136;23;19959;-77
2022/06/24 02:09:01;;;;;;;;;;;;;;;16.59;100.00;100624.69;6126095;23;19921;-77
2022/06/24 02:14:11;;;;;;;;;;;;;;;16.59;100.00;100623.78;6152547;23;19959;-75
2022/06/24 02:16:37;;;;;;;;;;;;;;;16.58;100.00;100630.88;6103807;23;19917;-76
2022/06/24 02:19:03;;;;;;;;;;;;;;;16.58;100.00;100627.38;6103569;23;19912;-77
2022/06/24 02:21:28;;;;;;;;;;;;;;;16.58;100.00;100630.88;6128015;23;20079;-77
2022/06/24 02:23:55;;;;;;;;;;;;;;;16.56;100.00;100640.63;6127460;23;20004;-77
2022/06/24 02:26:20;;;;;;;;;;;;;;;16.52;100.00;100644.34;6127389;23;19919;-74
2022/06/24 02:28:46;;;;;;;;;;;;;;;16.51;100.00;100652.34;6125785;23;19909;-74
2022/06/24 02:31:11;;;;;;;;;;;;;;;16.50;100.00;100648.84;6152566;23;19909;-75
2022/06/24 02:33:36;;;;;;;;;;;;;;;16.48;100.00;100648.03;6126298;23;20328;-75
2022/06/24 02:36:02;;;;;;;;;;;;;;;16.47;100.00;100646.31;6125297;23;19917;-75
2022/06/24 02:38:28;;;;;;;;;;;;;;;16.44;100.00;100636.72;6125775;23;19913;-75
2022/06/24 02:40:53;;;;;;;;;;;;;;;16.44;100.00;100626.13;6127449;23;19948;-74
2022/06/24 02:43:18;;;;;;;;;;;;;;;16.45;100.00;100611.16;6150135;23;19912;-74
2022/06/24 02:45:51;;;;;;;;;;;;;;;16.46;100.00;100612.84;6126134;23;19923;-74
2022/06/24 02:48:17;;;;;;;;;;;;;;;16.46;100.00;100610.19;6125986;23;19918;-75
2022/06/24 02:50:49;;;;;;;;;;;;;;;16.46;100.00;100618.13;6103073;23;19913;-75
2022/06/24 02:53:15;;;;;;;;;;;;;;;16.47;100.00;100614.56;6102418;23;20356;-76
2022/06/24 02:55:41;;;;;;;;;;;;;;;16.47;100.00;100611.94;6126287;23;20295;-76
2022/06/24 02:58:07;;;;;;;;;;;;;;;16.47;100.00;100603.16;6127722;23;19916;-77
2022/06/24 03:00:32;;;;;;;;;;;;;;;16.49;100.00;100607.44;6149681;23;19909;-77
2022/06/24 03:02:57;;;;;;;;;;;;;;;16.50;100.00;100590.63;6123655;23;19999;-77
2022/06/24 03:05:23;;;;;;;;;;;;;;;16.51;100.00;100592.38;6150542;23;19971;-76
2022/06/24 03:07:48;;;;;;;;;;;;;;;16.52;100.00;100580.00;6151976;23;19913;-75
2022/06/24 03:10:15;;;;;;;;;;;;;;;16.54;100.00;100579.03;6147563;23;19913;-75
2022/06/24 03:12:40;;;;;;;;;;;;;;;16.53;100.00;100574.66;6121658;23;19913;-75
2022/06/24 03:15:06;;;;;;;;;;;;;;;16.54;100.00;100563.16;6128032;23;19971;-75
2022/06/24 03:17:31;;;;;;;;;;;;;;;16.55;100.00;100569.28;6127032;23;19964;-74
2022/06/24 03:19:56;;;;;;;;;;;;;;;16.53;100.00;100566.72;6151165;23;20283;-76
2022/06/24 03:22:21;;;;;;;;;;;;;;;16.56;100.00;100558.63;6146709;23;19905;-76
2022/06/24 03:24:47;;;;;;;;;;;;;;;16.56;100.00;100548.06;6150907;23;19912;-76
2022/06/24 03:27:12;;;;;;;;;;;;;;;16.58;100.00;100545.38;6124279;23;19927;-76
2022/06/24 03:29:37;;;;;;;;;;;;;;;16.57;100.00;100554.22;6124453;23;19936;-76
2022/06/24 03:32:03;;;;;;;;;;;;;;;16.57;100.00;100554.22;6126532;23;20339;-76
2022/06/24 03:34:28;;;;;;;;;;;;;;;16.55;100.00;100543.72;6098788;23;19916;-76
2022/06/24 03:36:54;;;;;;;;;;;;;;;16.53;100.00;100537.63;6149237;23;19974;-76
2022/06/24 03:39:19;;;;;;;;;;;;;;;16.53;100.00;100524.38;6122754;23;19948;-76
2022/06/24 03:41:44;;;;;;;;;;;;;;;16.53;100.00;100527.03;6125367;23;19920;-76
2022/06/24 03:44:09;;;;;;;;;;;;;;;16.53;100.00;100537.63;6125540;23;19986;-76
2022/06/24 03:46:35;;;;;;;;;;;;;;;16.54;100.00;100533.19;6126647;23;20259;-76
2022/06/24 03:49:00;;;;;;;;;;;;;;;16.53;100.00;100542.91;6122452;23;19923;-76
2022/06/24 03:51:25;;;;;;;;;;;;;;;16.53;100.00;100539.41;6124658;23;19920;-76
2022/06/24 03:53:51;;;;;;;;;;;;;;;16.54;100.00;100538.50;6150778;23;19915;-76
2022/06/24 03:56:16;;;;;;;;;;;;;;;16.53;100.00;100539.41;6126872;23;19999;-77
2022/06/24 03:58:41;;;;;;;;;;;;;;;16.54;100.00;100544.63;6148585;23;19912;-77
2022/06/24 04:01:07;;;;;;;;;;;;;;;16.55;100.00;100541.06;6125080;23;20386;-77
2022/06/24 04:03:32;;;;;;;;;;;;;;;16.55;100.00;100537.53;6125006;23;19913;-77
2022/06/24 04:05:58;;;;;;;;;;;;;;;16.54;100.00;100539.34;6149382;23;20368;-77
2022/06/24 04:08:23;;;;;;;;;;;;;;;16.53;100.00;100540.25;6125516;23;19928;-77
2022/06/24 04:10:48;;;;;;;;;;;;;;;16.49;100.00;100541.31;6126286;23;20292;-78
2022/06/24 04:13:14;;;;;;;;;;;;;;;16.47;100.00;100550.25;6123081;23;19917;-78
2022/06/24 04:15:46;;;;;;;;;;;;;;;16.43;100.00;100568.91;6126457;23;19913;-78
2022/06/24 04:18:11;;;;;;;;;;;;;;;16.45;100.00;100574.97;6127752;23;19916;-79
2022/06/24 04:20:36;;;;;;;;;;;;;;;16.48;100.00;100586.34;6126551;23;19908;-78
2022/06/24 04:23:02;;;;;;;;;;;;;;;16.51;100.00;100589.72;6148000;23;19908;-79
2022/06/24 04:25:27;;;;;;;;;;;;;;;16.55;100.00;100593.09;6118148;23;20019;-79
2022/06/24 04:27:53;;;;;;;;;;;;;;;16.58;100.00;100591.19;6125361;23;19912;-79
2022/06/24 04:30:19;;;;;;;;;;;;;;;16.62;100.00;100589.28;6098479;23;19928;-79
2022/06/24 04:32:47;;;;;;;;;;;;;;;16.66;100.00;100590.03;6122601;23;20294;-79
2022/06/24 04:35:12;;;;;;;;;;;;;;;16.70;100.00;100588.97;6101374;23;19999;-79
2022/06/24 04:37:39;;;;;;;;;;;;;;;16.75;100.00;100586.97;6101931;23;20178;-79
2022/06/24 04:40:09;;;;;;;;;;;;;;;16.78;100.00;100585.09;6100956;23;20248;-78
2022/06/24 04:42:35;;;;;;;;;;;;;;;16.81;100.00;100589.41;6125886;23;19916;-79
2022/06/24 04:45:03;;;;;;;;;;;;;;;16.87;100.00;100591.78;6122808;23;19916;-79
2022/06/24 04:47:31;;;;;;;;;;;;;;;16.90;100.00;100591.69;6100773;23;20370;-79
2022/06/24 04:49:57;;;;;;;;;;;;;;;16.92;100.00;100589.84;6100933;23;19924;-79
2022/06/24 04:52:22;;;;;;;;;;;;;;;16.97;100.00;100597.59;6151136;23;20236;-79
2022/06/24 04:54:50;;;;;;;;;;;;;;;17.00;100.00;100594.81;6099379;23;19931;-80
2022/06/24 04:57:16;;;;;;;;;;;;;;;17.00;100.00;100594.81;6125189;23;19916;-76
2022/06/24 04:59:42;;;;;;;;;;;;;;;17.04;100.00;100604.34;6125269;23;19913;-76
2022/06/24 05:02:09;;;;;;;;;;;;;;;17.09;100.00;100606.78;6124573;23;19912;-77
2022/06/24 05:04:38;;;;;;;;;;;;;;;17.11;100.00;100594.31;6099754;23;19944;-76
2022/06/24 05:07:04;;;;;;;;;;;;;;;17.13;100.00;100596.00;6101081;23;19939;-77
2022/06/24 05:09:30;;;;;;;;;;;;;;;17.17;100.00;100593.19;6114127;23;20302;-78
2022/06/24 05:11:55;;;;;;;;;;;;;;;17.19;100.00;100596.66;6121489;23;19913;-78
2022/06/24 05:14:20;;;;;;;;;;;;;;;17.18;100.00;100611.66;6148396;23;19908;-78
2022/06/24 05:16:46;;;;;;;;;;;;;;;17.19;100.00;100617.84;6147978;23;19912;-78
2022/06/24 05:19:11;;;;;;;;;;;;;;;17.16;100.00;100618.81;6123695;23;20383;-77
2022/06/24 05:21:36;;;;;;;;;;;;;;;17.10;100.00;100621.75;6151374;23;19919;-78
2022/06/24 05:24:02;;;;;;;;;;;;;;;17.09;100.00;100627.97;6148919;23;20383;-77
2022/06/24 05:26:27;;;;;;;;;;;;;;;17.05;100.00;100621.06;6149679;23;19912;-77
2022/06/24 05:28:53;;;;;;;;;;;;;;;17.02;100.00;100624.69;6149646;23;20331;-77
2022/06/24 05:31:18;;;;;;;;;;;;;;;16.99;100.00;100623.97;6125265;23;19996;-76
2022/06/24 05:33:43;;;;;;;;;;;;;;;16.91;100.00;100625.16;6125730;23;19921;-77
2022/06/24 05:36:09;;;;;;;;;;;;;;;16.82;100.00;100620.19;6126023;23;19920;-77
2022/06/24 05:38:34;;;;;;;;;;;;;;;16.78;100.00;100621.28;6124586;23;19959;-78
2022/06/24 05:41:01;;;;;;;;;;;;;;;16.73;100.00;100621.44;6126497;23;19917;-77
2022/06/24 05:43:26;;;;;;;;;;;;;;;16.70;100.00;100620.72;6148711;23;19909;-78
2022/06/24 05:45:52;;;;;;;;;;;;;;;16.66;100.00;100624.41;6125683;23;20248;-77
2022/06/24 05:48:17;;;;;;;;;;;;;;;16.63;100.00;100615.66;6148358;23;19949;-79
2022/06/24 05:50:42;;;;;;;;;;;;;;;16.62;100.00;100613.97;6149373;23;19918;-77
2022/06/24 05:55:55;;;;;;;;;;;;;;;16.63;100.00;100620.94;6150823;23;19923;-80
2022/06/24 05:58:21;;;;;;;;;;;;;;;16.62;100.00;100613.97;6149064;23;20008;-77
2022/06/24 06:00:46;;;;;;;;;;;;;;;16.65;100.00;100606.81;6150648;23;19908;-78
2022/06/24 06:03:11;;;;;;;;;;;;;;;16.67;100.00;100599.69;6150009;23;19922;-78
2022/06/24 06:05:36;;;;;;;;;;;;;;;16.68;100.00;100601.38;6123417;23;19912;-77
2022/06/24 06:08:02;;;;;;;;;;;;;;;16.69;100.00;100603.97;6124177;23;19927;-77
2022/06/24 06:10:27;;;;;;;;;;;;;;;16.71;100.00;100599.50;6148596;23;20054;-80
2022/06/24 06:13:01;;;;;;;;;;;;;;;16.72;100.00;100595.06;6124562;23;19995;-78
2022/06/24 06:15:28;;;;;;;;;;;;;;;16.73;100.00;100599.44;6124369;23;19920;-77
2022/06/24 06:17:54;;;;;;;;;;;;;;;16.77;100.00;100603.69;6149010;23;20654;-77
2022/06/24 06:20:19;;;;;;;;;;;;;;;16.83;100.00;100602.56;6126360;23;20312;-77
2022/06/24 06:22:44;;;;;;;;;;;;;;;16.88;100.00;100601.47;6127203;23;19916;-77
2022/06/24 06:25:10;;;;;;;;;;;;;;;16.95;100.00;100610.00;6153283;23;19908;-76
2022/06/24 06:27:37;;;;;;;;;;;;;;;17.00;100.00;100621.28;6128413;23;19912;-77
2022/06/24 06:30:03;;;;;;;;;;;;;;;17.03;100.00;100620.28;6150198;23;20002;-78
2022/06/24 06:32:28;;;;;;;;;;;;;;;17.04;100.00;100622.88;6128954;23;19926;-78
2022/06/24 06:34:53;;;;;;;;;;;;;;;17.06;100.00;100622.81;6128188;23;20298;-78
2022/06/24 06:37:18;;;;;;;;;;;;;;;17.06;100.00;100628.94;6152682;23;19927;-78
2022/06/24 06:39:44;;;;;;;;;;;;;;;17.07;100.00;100629.81;6148077;23;19909;-78
2022/06/24 06:42:09;;;;;;;;;;;;;;;17.08;100.00;100626.22;6128384;23;19944;-77
2022/06/24 06:44:34;;;;;;;;;;;;;;;17.10;100.00;100627.03;6150173;23;19995;-77
2022/06/24 06:47:00;;;;;;;;;;;;;;;17.13;100.00;100630.41;6152183;23;19917;-77
2022/06/24 06:49:25;;;;;;;;;;;;;;;17.14;100.00;100626.84;6127690;23;19912;-77
2022/06/24 06:51:50;;;;;;;;;;;;;;;17.15;100.00;100638.28;6127891;23;20315;-78
2022/06/24 06:54:15;;;;;;;;;;;;;;;17.10;100.00;100635.84;6128426;23;19905;-77
2022/06/24 06:56:41;;;;;;;;;;;;;;;17.08;100.00;100628.88;6126978;23;20350;-76
2022/06/24 06:59:06;;;;;;;;;;;;;;;17.10;100.00;100629.69;6127098;23;19935;-77
2022/06/24 07:01:31;;;;;;;;;;;;;;;17.12;100.00;100630.47;6150763;23;19932;-76
2022/06/24 07:03:57;;;;;;;;;;;;;;;17.13;100.00;100633.06;6125351;23;20328;-77
2022/06/24 07:06:24;;;;;;;;;;;;;;;17.12;100.00;100628.72;6151100;23;19991;-77
2022/06/24 07:08:49;;;;;;;;;;;;;;;17.13;100.00;100641.00;6152220;23;20382;-78
2022/06/24 07:11:14;;;;;;;;;;;;;;;17.12;100.00;100633.13;6126545;23;20006;-78
2022/06/24 07:13:40;;;;;;;;;;;;;;;17.13;100.00;100630.41;6150682;23;19920;-79
2022/06/24 07:16:09;;;;;;;;;;;;;;;17.11;100.00;100642.84;6126783;23;19912;-79
2022/06/24 07:18:35;;;;;;;;;;;;;;;17.06;100.00;100633.38;6128135;23;19927;-78
2022/06/24 07:21:00;;;;;;;;;;;;;;;17.02;100.00;100630.00;6151540;23;19912;-80
2022/06/24 07:23:25;;;;;;;;;;;;;;;16.97;100.00;100627.53;6152427;23;20329;-79
2022/06/24 07:25:50;;;;;;;;;;;;;;;16.96;100.00;100620.53;6128944;23;20354;-79
2022/06/24 07:28:16;;;;;;;;;;;;;;;17.02;100.00;100615.91;6151444;23;19905;-80
2022/06/24 07:30:41;;;;;;;;;;;;;;;17.08;100.00;100615.63;6127176;23;19924;-80
2022/06/24 07:33:06;;;;;;;;;;;;;;;17.12;100.00;100606.66;6127208;23;19913;-82
2022/06/24 07:35:32;;;;;;;;;;;;;;;17.14;100.00;100602.16;6128284;23;19913;-82
2022/06/24 07:37:57;;;;;;;;;;;;;;;17.20;100.00;100604.53;6152784;23;19908;-80
2022/06/24 07:40:23;;;;;;;;;;;;;;;17.24;100.00;100592.00;6127979;23;20247;-83
2022/06/24 07:42:48;;;;;;;;;;;;;;;17.25;100.00;100594.59;6126852;23;19919;-81
2022/06/24 07:45:13;;;;;;;;;;;;;;;17.27;100.00;100595.41;6128081;23;19968;-80
2022/06/24 07:47:40;;;;;;;;;;;;;;;17.31;100.00;100604.94;6127422;23;19924;-80
2022/06/24 07:50:05;;;;;;;;;;;;;;;17.34;100.00;100609.25;6152494;23;19999;-80
2022/06/24 07:52:31;;;;;;;;;;;;;;;17.34;100.00;100611.88;6126601;23;19984;-80
2022/06/24 07:57:40;;;;;;;;;;;;;;;17.36;100.00;100614.47;6151275;23;19969;-80
2022/06/24 08:00:06;;;;;;;;;;;;;;;17.40;100.00;100611.63;6128222;23;20035;-80
2022/06/24 08:02:31;;;;;;;;;;;;;;;17.44;100.00;100620.28;6126560;23;19913;-81
2022/06/24 08:04:56;;;;;;;;;;;;;;;17.45;100.00;100620.19;6125918;23;19913;-79
2022/06/24 08:07:21;;;;;;;;;;;;;;;17.46;100.00;100626.38;6127878;23;19912;-78
2022/06/24 08:09:47;;;;;;;;;;;;;;;17.47;100.00;100630.75;6151685;23;19948;-80
2022/06/24 08:12:12;;;;;;;;;;;;;;;17.48;100.00;100629.81;6152733;23;20286;-79
2022/06/24 08:14:37;;;;;;;;;;;;;;;17.51;100.00;100627.00;6125336;23;19959;-80
2022/06/24 08:17:03;;;;;;;;;;;;;;;17.55;100.00;100631.25;6127630;23;19913;-79
2022/06/24 08:19:28;;;;;;;;;;;;;;;17.60;100.00;100634.56;6126776;23;19913;-80
2022/06/24 08:21:53;;;;;;;;;;;;;;;17.64;100.00;100625.56;6127919;23;19916;-79
2022/06/24 08:24:19;;;;;;;;;;;;;;;17.67;100.00;100629.88;6125749;23;19916;-80
2022/06/24 08:26:44;;;;;;;;;;;;;;;17.72;100.00;100622.56;6127171;23;19920;-80
2022/06/24 08:29:11;;;;;;;;;;;;;;;17.77;100.00;100627.66;6125270;23;19916;-79
2022/06/24 08:31:36;;;;;;;;;;;;;;;17.83;100.00;100625.59;6128192;23;19928;-79
2022/06/24 08:34:01;;;;;;;;;;;;;;;17.89;100.00;100621.78;6126077;23;19913;-79
2022/06/24 08:36:27;;;;;;;;;;;;;;;17.93;100.00;100634.03;6127338;23;19913;-79
2022/06/24 08:38:53;;;;;;;;;;;;;;;17.93;100.00;100627.84;6125392;23;19947;-82
2022/06/24 08:41:23;;;;;;;;;;;;;;;17.88;100.00;100633.31;6152426;23;19909;-80
2022/06/24 08:43:49;;;;;;;;;;;;;;;17.85;100.00;100630.81;6149411;23;19995;-82
2022/06/24 08:46:15;;;;;;;;;;;;;;;17.81;100.00;100634.53;6152111;23;20311;-79
2022/06/24 08:48:41;;;;;;;;;;;;;;;17.81;100.00;100639.84;6149829;23;19956;-79
2022/06/24 08:51:07;;;;;;;;;;;;;;;17.86;100.00;100629.00;6127102;23;19940;-80
2022/06/24 08:53:33;;;;;;;;;;;;;;;17.94;100.00;100622.50;6151715;23;19908;-78
2022/06/24 08:55:58;;;;;;;;;;;;;;;18.10;100.00;100619.09;6151998;23;19991;-79
2022/06/24 08:58:24;;;;;;;;;;;;;;;18.34;100.00;100625.91;6150576;23;20287;-78
2022/06/24 09:00:49;;;;;;;;;;;;;;;18.61;100.00;100625.50;6127601;23;19939;-79
2022/06/24 09:03:14;;;;;;;;;;;;;;;18.89;100.00;100625.97;6126638;23;19920;-78
2022/06/24 09:05:40;;;;;;;;;;;;;;;19.10;100.00;100624.88;6127641;23;19913;-79
2022/06/24 09:08:10;;;;;;;;;;;;;;;19.30;100.00;100615.91;6126326;23;19944;-79
2022/06/24 09:10:36;;;;;;;;;;;;;;;19.49;100.00;100610.47;6102214;23;20003;-79
2022/06/24 09:13:03;;;;;;;;;;;;;;;19.74;100.00;100609.19;6125481;23;19908;-80
2022/06/24 09:15:29;;;;;;;;;;;;;;;19.98;100.00;100616.78;6127580;23;20022;-81
2022/06/24 09:17:54;;;;;;;;;;;;;;;20.09;100.00;100609.09;6126924;23;20022;-80
2022/06/24 09:20:24;;;;;;;;;;;;;;;20.32;100.00;100613.13;6127011;23;19954;-77
2022/06/24 09:22:50;;;;;;;;;;;;;;;20.67;100.00;100606.75;6126482;23;19909;-79
2022/06/24 09:25:15;;;;;;;;;;;;;;;21.04;100.00;100616.09;6126686;23;19940;-79
2022/06/24 09:27:44;;;;;;;;;;;;;;;21.45;100.00;100611.91;6150831;23;19913;-79
2022/06/24 09:30:11;;;;;;;;;;;;;;;21.74;100.00;100615.47;6126492;23;19987;-78
2022/06/24 09:32:52;;;;;;;;;;;;;;;21.78;100.00;100618.81;6126500;23;19913;-81
2022/06/24 09:35:19;;;;;;;;;;;;;;;21.86;100.00;100621.00;6127013;23;19913;-79
2022/06/24 09:37:45;;;;;;;;;;;;;;;22.06;100.00;100617.91;6127124;23;20316;-78
2022/06/24 09:40:18;;;;;;;;;;;;;;;22.40;100.00;100621.13;6126183;23;19983;-80
2022/06/24 09:42:50;;;;;;;;;;;;;;;22.64;100.00;100623.13;6125703;23;19954;-78
2022/06/24 09:45:16;;;;;;;;;;;;;;;22.69;100.00;100630.88;6127165;23;19944;-78
2022/06/24 09:47:46;;;;;;;;;;;;;;;22.71;100.00;100629.78;6151216;23;19960;-76
2022/06/24 09:50:12;;;;;;;;;;;;;;;22.84;100.00;100630.69;6125768;23;19999;-79
2022/06/24 09:52:39;;;;;;;;;;;;;;;22.97;100.00;100624.50;6126760;23;19940;-77
2022/06/24 09:55:04;;;;;;;;;;;;;;;23.16;100.00;100626.84;6126369;23;19916;-77
2022/06/24 09:57:30;;;;;;;;;;;;;;;23.35;100.00;100616.59;6104166;23;20055;-75
2022/06/24 10:02:40;;;;;;;;;;;;;;;23.90;100.00;100626.22;6131900;23;19924;-77
2022/06/24 10:05:07;;;;;;;;;;;;;;;23.99;99.93;100618.41;6127717;23;19909;-77
2022/06/24 10:07:34;;;;;;;;;;;;;;;24.09;98.46;100626.59;6128691;23;19916;-77
2022/06/24 10:10:04;;;;;;;;;;;;;;;24.20;95.94;100629.38;6146682;23;19923;-80
2022/06/24 10:12:31;;;;;;;;;;;;;;;24.30;91.87;100628.72;6151915;23;20050;-80
2022/06/24 10:14:58;;;;;;;;;;;;;;;24.42;91.76;100619.75;6152376;23;20307;-78
2022/06/24 10:17:25;;;;;;;;;;;;;;;24.51;90.45;100621.78;6153474;23;19943;-80
2022/06/24 10:19:50;;;;;;;;;;;;;;;24.54;87.60;100618.88;6128656;23;19928;-80
2022/06/24 10:22:51;;;;;;;;;;;;;;;24.54;87.79;100618.88;6151780;23;19913;-80
2022/06/24 10:25:20;;;;;;;;;;;;;;;24.63;85.96;100617.34;6100301;23;19959;-81
2022/06/24 10:27:58;;;;;;;;;;;;;;;24.66;85.71;100621.63;6152359;23;19909;-80
2022/06/24 10:30:35;;;;;;;;;;;;;;;24.55;85.24;100625.94;6152979;23;19916;-79
2022/06/24 10:33:20;;;;;;;;;;;;;;;24.38;84.74;100619.16;6152094;23;19924;-80
2022/06/24 10:36:00;;;;;;;;;;;;;;;24.25;84.09;100621.03;6128320;23;19919;-80
2022/06/24 10:38:34;;;;;;;;;;;;;;;24.03;84.18;100619.91;6153011;23;19987;-80
2022/06/24 10:40:59;;;;;;;;;;;;;;;23.75;83.20;100634.34;6153303;23;19912;-80
2022/06/24 10:43:35;;;;;;;;;;;;;;;23.43;84.17;100637.47;6126213;23;20244;-78
2022/06/24 10:46:12;;;;;;;;;;;;;;;23.11;84.35;100643.19;6128038;23;19932;-78
2022/06/24 10:48:43;;;;;;;;;;;;;;;22.83;84.43;100653.03;6153008;23;20292;-79
2022/06/24 10:51:13;;;;;;;;;;;;;;;22.54;83.63;100657.63;6152840;23;19916;-79
2022/06/24 10:53:57;;;;;;;;;;;;;;;21.94;83.72;100661.41;6151569;23;19991;-79
2022/06/24 10:56:40;;;;;;;;;;;;;;;21.42;86.65;100663.59;6152769;23;19912;-80
2022/06/24 10:59:06;;;;;;;;;;;;;;;20.88;86.36;100660.59;6151525;23;20071;-77
2022/06/24 11:01:31;;;;;;;;;;;;;;;20.38;87.15;100673.97;6152877;23;20225;-78
2022/06/24 11:03:59;;;;;;;;;;;;;;;19.96;85.77;100675.38;6152019;23;20312;-81
2022/06/24 11:06:24;;;;;;;;;;;;;;;19.65;85.51;100678.78;6151075;23;19908;-78
2022/06/24 11:08:49;;;;;;;;;;;;;;;19.41;85.61;100673.81;6126118;23;19983;-78
2022/06/24 11:11:26;;;;;;;;;;;;;;;19.25;85.67;100652.47;6127872;23;19921;-77
2022/06/24 11:13:51;;;;;;;;;;;;;;;19.06;85.95;100643.72;6127736;23;19982;-80
2022/06/24 11:16:17;;;;;;;;;;;;;;;18.96;86.15;100638.00;6127046;23;20387;-78
2022/06/24 11:18:42;;;;;;;;;;;;;;;18.91;86.88;100645.34;6128367;23;19919;-79
2022/06/24 11:21:08;;;;;;;;;;;;;;;18.90;87.56;100657.75;6127501;23;19940;-82
2022/06/24 11:23:35;;;;;;;;;;;;;;;18.84;87.36;100658.03;6102655;23;19916;-77
2022/06/24 11:26:09;;;;;;;;;;;;;;;18.92;87.60;100642.63;6127817;23;19913;-78
2022/06/24 11:28:35;;;;;;;;;;;;;;;19.04;87.87;100635.84;6126981;23;19908;-78
2022/06/24 11:31:19;;;;;;;;;;;;;;;19.18;87.72;100632.50;6127735;23;19967;-78
2022/06/24 11:33:47;;;;;;;;;;;;;;;19.35;87.74;100627.16;6127295;23;19936;-78
2022/06/24 11:36:14;;;;;;;;;;;;;;;19.54;87.35;100631.50;6153471;23;19912;-78
2022/06/24 11:39:03;;;;;;;;;;;;;;;19.69;87.34;100621.84;6152423;23;19908;-79
2022/06/24 11:41:29;;;;;;;;;;;;;;;19.89;87.21;100618.16;6128332;23;20308;-78
2022/06/24 11:43:56;;;;;;;;;;;;;;;20.14;87.53;100622.13;6127207;23;19951;-78
2022/06/24 11:46:21;;;;;;;;;;;;;;;20.47;87.25;100629.16;6126807;23;19913;-78
2022/06/24 11:48:46;;;;;;;;;;;;;;;20.87;87.42;100624.25;6128173;23;19940;-77
2022/06/24 11:51:18;;;;;;;;;;;;;;;21.28;86.27;100627.13;6125945;23;20292;-78
2022/06/24 11:54:00;;;;;;;;;;;;;;;21.63;86.14;100628.63;6102394;23;20332;-78
2022/06/24 11:56:28;;;;;;;;;;;;;;;21.92;85.74;100631.28;6127298;23;19912;-77
2022/06/24 11:58:54;;;;;;;;;;;;;;;22.13;84.82;100634.41;6125501;23;19909;-77
2022/06/24 12:01:21;;;;;;;;;;;;;;;22.36;84.60;100635.63;6127930;23;19983;-77
2022/06/24 12:03:47;;;;;;;;;;;;;;;22.47;84.13;100632.28;6101992;23;19923;-77
